Time;durP1;ratioP1;P1;durP2;ratioP2;P2;SDS_P1;SDS_P2;PMS_P1;PMS_P2;Temp;Humidity;BMP_temperature;BMP_pressure;BME280_temperature;BME280_humidity;BME280_pressure;Samples;Min_cycle;Max_cycle;Signal;HPM_P1;HPM_P2
2023/02/25 00:01:27;;;;;;;3.70;3.40;;;4.50;99.90;;;;;;4922992;29;20242;-80
2023/02/25 00:03:55;;;;;;;4.90;3.67;;;4.60;99.90;;;;;;4933441;29;20264;-82
2023/02/25 00:06:22;;;;;;;5.10;4.30;;;4.50;99.90;;;;;;4930836;29;20405;-81
2023/02/25 00:08:51;;;;;;;6.57;4.53;;;4.40;99.90;;;;;;4933023;29;20238;-82
2023/02/25 00:11:19;;;;;;;5.95;4.53;;;4.30;99.90;;;;;;4921692;29;20224;-81
2023/02/25 00:13:46;;;;;;;6.55;5.07;;;4.30;99.90;;;;;;4939108;29;20293;-80
2023/02/25 00:16:13;;;;;;;5.32;4.70;;;4.30;99.90;;;;;;4929331;29;20209;-81
2023/02/25 00:18:45;;;;;;;5.68;5.07;;;4.30;99.90;;;;;;4938376;29;20234;-81
2023/02/25 00:21:14;;;;;;;7.22;4.57;;;4.20;99.90;;;;;;4918241;29;20239;-82
2023/02/25 00:23:43;;;;;;;5.32;4.45;;;4.20;99.90;;;;;;4934554;29;20477;-83
2023/02/25 00:26:12;;;;;;;8.93;5.50;;;4.40;99.90;;;;;;4922486;29;20220;-83
2023/02/25 00:28:43;;;;;;;8.02;4.95;;;4.30;99.90;;;;;;4923175;29;20239;-82
2023/02/25 00:31:16;;;;;;;6.90;5.20;;;4.30;99.90;;;;;;4927241;29;20252;-81
2023/02/25 00:33:43;;;;;;;6.82;5.53;;;4.40;99.90;;;;;;4930091;29;20212;-82
2023/02/25 00:36:20;;;;;;;6.78;4.60;;;4.50;99.90;;;;;;4933393;29;20271;-82
2023/02/25 00:38:55;;;;;;;5.35;4.15;;;4.30;99.90;;;;;;4926392;29;20222;-82
2023/02/25 00:41:25;;;;;;;5.25;4.30;;;4.40;99.90;;;;;;4931827;29;20239;-81
2023/02/25 00:43:55;;;;;;;4.43;4.00;;;4.50;99.90;;;;;;4933154;29;20244;-81
2023/02/25 00:46:26;;;;;;;4.50;4.10;;;4.60;99.90;;;;;;4927778;29;20508;-82
2023/02/25 00:48:53;;;;;;;3.92;3.53;;;4.60;99.90;;;;;;4921749;29;20223;-81
2023/02/25 00:51:26;;;;;;;5.13;3.50;;;4.70;99.90;;;;;;4922196;29;20208;-81
2023/02/25 00:53:55;;;;;;;3.58;3.00;;;4.70;99.90;;;;;;4920342;29;20212;-82
2023/02/25 00:56:24;;;;;;;3.63;3.15;;;4.80;99.90;;;;;;4920556;29;20216;-79
2023/02/25 00:58:51;;;;;;;4.10;3.70;;;5.00;99.90;;;;;;4922107;29;20215;-81
2023/02/25 01:01:25;;;;;;;4.60;4.20;;;4.90;99.90;;;;;;4927795;29;20241;-80
2023/02/25 01:03:55;;;;;;;5.00;4.45;;;4.70;99.90;;;;;;4930023;29;20227;-81
2023/02/25 01:06:28;;;;;;;4.05;3.03;;;4.70;99.90;;;;;;4930097;29;20632;-83
2023/02/25 01:08:56;;;;;;;3.50;3.20;;;4.80;99.90;;;;;;4929703;29;20222;-82
2023/02/25 01:11:28;;;;;;;4.63;4.22;;;4.90;99.90;;;;;;4937385;29;20228;-83
2023/02/25 01:13:57;;;;;;;3.17;2.80;;;4.80;99.90;;;;;;4929360;29;20212;-81
2023/02/25 01:16:26;;;;;;;4.40;4.00;;;4.70;99.90;;;;;;4923658;29;20220;-79
2023/02/25 01:18:55;;;;;;;4.90;4.22;;;4.60;99.90;;;;;;4929525;29;20354;-80
2023/02/25 01:21:26;;;;;;;3.85;3.55;;;4.60;99.90;;;;;;4925155;29;20555;-80
2023/02/25 01:23:59;;;;;;;4.43;3.35;;;4.50;99.90;;;;;;4929364;29;20201;-81
2023/02/25 01:26:28;;;;;;;5.45;4.63;;;4.40;99.90;;;;;;4927919;29;20535;-81
2023/02/25 01:28:56;;;;;;;4.05;3.65;;;4.40;99.90;;;;;;4931338;29;20390;-83
2023/02/25 01:31:28;;;;;;;7.93;4.68;;;4.40;99.90;;;;;;4927707;29;20216;-80
2023/02/25 01:33:59;;;;;;;4.97;3.75;;;4.50;99.90;;;;;;4929833;29;20365;-82
2023/02/25 01:36:28;;;;;;;5.35;4.50;;;4.40;99.90;;;;;;4932479;29;20212;-81
2023/02/25 01:38:55;;;;;;;5.68;4.18;;;4.40;99.90;;;;;;4924212;29;20807;-81
2023/02/25 01:41:25;;;;;;;4.70;4.25;;;4.40;99.90;;;;;;4932727;29;20304;-81
2023/02/25 01:44:08;;;;;;;5.07;4.60;;;4.70;99.90;;;;;;4938637;29;20208;-82
2023/02/25 01:46:38;;;;;;;7.40;4.93;;;4.60;99.90;;;;;;4927077;29;20532;-81
2023/02/25 01:49:22;;;;;;;10.55;5.40;;;4.70;99.90;;;;;;4935944;29;20219;-81
2023/02/25 01:51:53;;;;;;;5.32;4.78;;;4.70;99.90;;;;;;4925333;29;20416;-82
2023/02/25 01:54:20;;;;;;;7.50;5.90;;;4.80;99.90;;;;;;4939341;29;20211;-82
2023/02/25 01:56:53;;;;;;;6.03;5.40;;;4.80;99.90;;;;;;4923693;29;20532;-82
2023/02/25 01:59:25;;;;;;;5.93;4.63;;;4.70;99.90;;;;;;4932433;29;20219;-81
2023/02/25 02:01:52;;;;;;;5.28;4.50;;;4.70;99.90;;;;;;4929044;29;20224;-80
2023/02/25 02:04:21;;;;;;;6.28;5.38;;;4.90;99.90;;;;;;4932551;29;20255;-82
2023/02/25 02:06:49;;;;;;;7.18;5.85;;;4.80;99.90;;;;;;4938722;29;20211;-82
2023/02/25 02:09:21;;;;;;;8.70;5.55;;;4.70;99.90;;;;;;4923792;29;20215;-81
2023/02/25 02:11:48;;;;;;;6.25;4.80;;;4.60;99.90;;;;;;4927591;29;20339;-83
2023/02/25 02:14:27;;;;;;;8.43;6.28;;;4.60;99.90;;;;;;4934770;29;20279;-82
2023/02/25 02:16:57;;;;;;;6.70;5.47;;;4.50;99.90;;;;;;4922812;29;20215;-82
2023/02/25 02:20:10;;;;;;;8.55;5.90;;;4.50;99.90;;;;;;4933636;29;20215;-81
2023/02/25 02:23:15;;;;;;;7.95;5.72;;;4.50;99.90;;;;;;4932018;29;20220;-82
2023/02/25 02:26:09;;;;;;;7.07;5.78;;;4.40;99.90;;;;;;4926010;29;20218;-81
2023/02/25 02:28:54;;;;;;;6.55;5.90;;;4.50;99.90;;;;;;4932079;29;20223;-81
2023/02/25 02:31:59;;;;;;;7.07;6.25;;;4.60;99.90;;;;;;4930856;29;20212;-80
2023/02/25 02:34:50;;;;;;;7.32;5.60;;;4.60;99.90;;;;;;4924616;29;20271;-81
2023/02/25 02:37:38;;;;;;;9.32;6.60;;;4.60;99.90;;;;;;4939278;29;20237;-80
2023/02/25 02:40:18;;;;;;;6.78;5.82;;;4.70;99.90;;;;;;4935293;29;20230;-80
2023/02/25 02:43:07;;;;;;;6.30;5.68;;;4.60;99.90;;;;;;4926935;29;20212;-82
2023/02/25 02:46:02;;;;;;;8.25;5.13;;;4.50;99.90;;;;;;4931927;29;20262;-79
2023/02/25 02:48:43;;;;;;;5.15;4.65;;;4.50;99.90;;;;;;4929560;29;20216;-81
2023/02/25 02:51:17;;;;;;;14.57;5.53;;;4.40;99.90;;;;;;4922567;29;20218;-83
2023/02/25 02:53:51;;;;;;;20.33;6.95;;;4.30;99.90;;;;;;4935747;29;20258;-83
2023/02/25 02:56:20;;;;;;;6.75;6.07;;;4.50;99.90;;;;;;4944813;29;20196;-82
2023/02/25 02:58:57;;;;;;;7.60;6.05;;;4.50;99.90;;;;;;4927230;29;20715;-84
2023/02/25 03:01:52;;;;;;;8.60;5.80;;;4.60;99.90;;;;;;4935722;29;20265;-82
2023/02/25 03:04:26;;;;;;;6.70;5.30;;;4.60;99.90;;;;;;4927764;29;20212;-84
2023/02/25 03:07:04;;;;;;;7.72;5.45;;;4.70;99.90;;;;;;4929783;29;20211;-83
2023/02/25 03:09:52;;;;;;;6.00;5.40;;;4.60;99.90;;;;;;4923055;29;20211;-84
2023/02/25 03:12:19;;;;;;;5.80;4.88;;;4.60;99.90;;;;;;4935326;29;20215;-83
2023/02/25 03:14:46;;;;;;;6.32;5.65;;;4.70;99.90;;;;;;4921282;29;20211;-83
2023/02/25 03:17:30;;;;;;;5.63;4.32;;;4.60;99.90;;;;;;4921925;29;20534;-81
2023/02/25 03:20:10;;;;;;;6.13;5.13;;;4.70;99.90;;;;;;4916450;29;20247;-83
2023/02/25 03:22:40;;;;;;;4.63;4.15;;;4.60;99.90;;;;;;4924556;29;20695;-83
2023/02/25 03:25:18;;;;;;;5.25;4.75;;;4.40;99.90;;;;;;4928825;29;20217;-83
2023/02/25 03:27:51;;;;;;;10.35;5.10;;;4.30;99.90;;;;;;4917537;29;20199;-85
2023/02/25 03:30:30;;;;;;;5.18;4.55;;;4.30;99.90;;;;;;4931043;29;20203;-82
2023/02/25 03:33:03;;;;;;;6.07;4.95;;;4.00;99.90;;;;;;4925756;29;20215;-82
2023/02/25 03:35:33;;;;;;;4.20;3.80;;;3.90;99.90;;;;;;4938391;29;20207;-82
2023/02/25 03:38:11;;;;;;;6.57;4.22;;;3.90;99.90;;;;;;4925873;29;20208;-83
2023/02/25 03:40:41;;;;;;;4.80;4.30;;;3.70;99.90;;;;;;4927286;29;20263;-83
2023/02/25 03:43:31;;;;;;;7.40;4.38;;;3.70;99.90;;;;;;4921787;29;20211;-83
2023/02/25 03:45:58;;;;;;;5.05;4.40;;;3.80;99.90;;;;;;4916930;29;20262;-84
2023/02/25 03:48:28;;;;;;;5.78;4.53;;;3.90;99.90;;;;;;4924124;29;20274;-82
2023/02/25 03:51:03;;;;;;;6.22;3.80;;;3.80;99.90;;;;;;4928513;29;20329;-83
2023/02/25 03:53:32;;;;;;;6.43;4.28;;;3.70;99.90;;;;;;4931476;29;20209;-83
2023/02/25 03:56:06;;;;;;;5.50;4.60;;;3.60;99.90;;;;;;4928997;29;20215;-81
2023/02/25 03:58:35;;;;;;;5.65;4.70;;;3.40;99.90;;;;;;4932628;29;20207;-81
2023/02/25 04:01:06;;;;;;;8.20;4.63;;;3.40;99.90;;;;;;4921262;29;20231;-82
2023/02/25 04:03:32;;;;;;;5.20;3.78;;;3.40;99.90;;;;;;4921042;29;20265;-82
2023/02/25 04:05:59;;;;;;;10.60;4.32;;;3.50;99.90;;;;;;4922618;29;20223;-82
2023/02/25 04:08:26;;;;;;;5.78;4.00;;;3.70;99.90;;;;;;4933949;29;20212;-82
2023/02/25 04:10:53;;;;;;;5.45;4.70;;;3.70;99.90;;;;;;4922724;29;20498;-81
2023/02/25 04:13:21;;;;;;;6.72;4.15;;;3.70;99.90;;;;;;4930315;29;20211;-83
2023/02/25 04:15:49;;;;;;;5.22;4.00;;;3.80;99.90;;;;;;4933390;29;20568;-83
2023/02/25 04:18:16;;;;;;;6.20;3.90;;;3.80;99.90;;;;;;4929104;29;20211;-85
2023/02/25 04:20:43;;;;;;;6.03;3.10;;;3.90;99.90;;;;;;4936124;29;20305;-80
2023/02/25 04:23:12;;;;;;;3.55;2.88;;;4.00;99.90;;;;;;4927486;29;20500;-81
2023/02/25 04:25:39;;;;;;;5.97;3.58;;;3.90;99.90;;;;;;4937695;29;20207;-81
2023/02/25 04:28:06;;;;;;;3.88;3.38;;;3.80;99.90;;;;;;4934400;29;20203;-83
2023/02/25 04:30:33;;;;;;;5.70;3.67;;;3.80;99.90;;;;;;4941098;29;20209;-81
2023/02/25 04:33:01;;;;;;;4.43;2.88;;;3.90;99.90;;;;;;4945273;29;20211;-82
2023/02/25 04:35:27;;;;;;;3.22;2.80;;;4.00;99.90;;;;;;4937673;29;20200;-81
2023/02/25 04:37:54;;;;;;;5.80;2.97;;;4.00;99.90;;;;;;4941746;29;20579;-81
2023/02/25 04:40:23;;;;;;;5.22;3.80;;;4.00;99.90;;;;;;4929692;29;20247;-81
2023/02/25 04:42:50;;;;;;;3.38;3.00;;;3.90;99.90;;;;;;4926798;29;20207;-81
2023/02/25 04:45:17;;;;;;;7.55;2.95;;;3.90;99.90;;;;;;4933977;29;20215;-80
2023/02/25 04:47:44;;;;;;;6.28;2.65;;;3.90;99.90;;;;;;4931729;29;20589;-82
2023/02/25 04:50:11;;;;;;;9.80;2.95;;;3.90;99.90;;;;;;4930463;29;20206;-83
2023/02/25 04:52:39;;;;;;;4.97;2.40;;;4.00;99.90;;;;;;4935667;29;20215;-81
2023/02/25 04:55:08;;;;;;;6.85;3.70;;;3.90;99.90;;;;;;4936587;29;20629;-82
2023/02/25 04:57:41;;;;;;;9.32;2.97;;;3.80;99.90;;;;;;4928411;29;20219;-82
2023/02/25 05:00:15;;;;;;;7.80;2.60;;;3.90;99.90;;;;;;4937619;29;20204;-83
2023/02/25 05:02:42;;;;;;;8.38;3.20;;;4.00;99.90;;;;;;4937432;29;20254;-82
2023/02/25 05:05:09;;;;;;;3.10;2.45;;;4.10;99.90;;;;;;4925912;29;20440;-82
2023/02/25 05:07:37;;;;;;;2.97;2.25;;;4.20;99.90;;;;;;4927414;29;20267;-82
2023/02/25 05:10:06;;;;;;;6.18;2.65;;;4.30;99.90;;;;;;4917799;29;20216;-81
2023/02/25 05:12:33;;;;;;;4.57;2.45;;;4.30;99.90;;;;;;4934072;29;20217;-83
2023/02/25 05:15:04;;;;;;;7.75;2.90;;;4.30;99.90;;;;;;4922284;29;20548;-80
2023/02/25 05:17:31;;;;;;;4.28;2.97;;;4.30;99.90;;;;;;4929209;29;20207;-79
2023/02/25 05:19:58;;;;;;;4.68;3.72;;;4.30;99.90;;;;;;4934426;29;20263;-78
2023/02/25 05:22:26;;;;;;;4.25;2.60;;;4.20;99.90;;;;;;4931792;29;20235;-78
2023/02/25 05:24:53;;;;;;;3.13;2.47;;;4.30;99.90;;;;;;4932772;29;20210;-80
2023/02/25 05:27:20;;;;;;;3.72;3.08;;;4.30;99.90;;;;;;4930396;29;20208;-80
2023/02/25 05:29:47;;;;;;;5.03;2.72;;;4.20;99.90;;;;;;4925274;29;20243;-80
2023/02/25 05:32:14;;;;;;;5.88;3.03;;;4.20;99.90;;;;;;4931926;29;20218;-79
2023/02/25 05:34:41;;;;;;;2.85;2.08;;;4.10;99.90;;;;;;4937158;29;20739;-80
2023/02/25 05:37:08;;;;;;;5.65;2.72;;;4.10;99.90;;;;;;4925140;29;20235;-79
2023/02/25 05:39:35;;;;;;;7.28;3.10;;;4.00;99.90;;;;;;4931762;29;20219;-79
2023/02/25 05:42:02;;;;;;;5.55;2.78;;;4.00;99.90;;;;;;4933623;29;20231;-80
2023/02/25 05:44:29;;;;;;;3.25;2.15;;;4.10;99.90;;;;;;4938009;29;20204;-79
2023/02/25 05:46:56;;;;;;;3.00;2.17;;;4.00;99.90;;;;;;4929897;29;20225;-78
2023/02/25 05:49:23;;;;;;;4.72;2.22;;;4.10;99.90;;;;;;4937361;29;20218;-82
2023/02/25 05:51:50;;;;;;;4.15;2.60;;;4.00;99.90;;;;;;4935168;29;20223;-79
2023/02/25 05:54:17;;;;;;;3.25;2.05;;;4.00;99.90;;;;;;4925329;29;20252;-79
2023/02/25 05:56:44;;;;;;;2.95;2.65;;;4.00;99.90;;;;;;4924903;29;20243;-78
2023/02/25 05:59:11;;;;;;;5.05;2.53;;;4.00;99.90;;;;;;4933201;29;20471;-80
2023/02/25 06:01:38;;;;;;;3.30;1.80;;;4.10;99.90;;;;;;4932685;29;20232;-80
2023/02/25 06:04:05;;;;;;;2.58;1.77;;;4.20;99.90;;;;;;4927755;29;20278;-81
2023/02/25 06:06:32;;;;;;;4.57;1.90;;;4.20;99.90;;;;;;4927133;29;20211;-78
2023/02/25 06:08:59;;;;;;;3.22;2.58;;;4.20;99.90;;;;;;4930571;29;20256;-79
2023/02/25 06:11:29;;;;;;;2.88;2.00;;;4.20;99.90;;;;;;4926244;29;20242;-79
2023/02/25 06:13:57;;;;;;;1.92;1.63;;;4.30;99.90;;;;;;4936851;29;20499;-80
2023/02/25 06:16:29;;;;;;;2.25;1.73;;;4.30;99.90;;;;;;4942922;29;20270;-79
2023/02/25 06:18:56;;;;;;;5.00;1.83;;;4.40;99.90;;;;;;4933990;29;20220;-80
2023/02/25 06:21:31;;;;;;;1.90;1.70;;;4.40;99.90;;;;;;4928861;29;20705;-80
2023/02/25 06:24:01;;;;;;;1.60;1.50;;;4.40;99.90;;;;;;4929909;29;20215;-79
2023/02/25 06:26:31;;;;;;;1.73;1.60;;;4.40;99.90;;;;;;4934275;29;20275;-79
2023/02/25 06:28:59;;;;;;;2.50;1.98;;;4.50;99.90;;;;;;4930578;29;20305;-79
2023/02/25 06:31:27;;;;;;;2.55;2.35;;;4.60;99.90;;;;;;4939974;29;20373;-81
2023/02/25 06:33:54;;;;;;;3.03;1.92;;;4.50;99.90;;;;;;4923333;29;20275;-81
2023/02/25 06:36:22;;;;;;;2.80;2.47;;;4.40;99.90;;;;;;4928398;29;20208;-81
2023/02/25 06:38:50;;;;;;;1.83;1.63;;;4.40;99.90;;;;;;4929826;29;20220;-81
2023/02/25 06:41:19;;;;;;;2.80;2.00;;;4.40;99.90;;;;;;4931278;29;20279;-78
2023/02/25 06:43:50;;;;;;;2.90;2.45;;;4.40;99.90;;;;;;4932467;29;20414;-79
2023/02/25 06:46:21;;;;;;;2.05;1.70;;;4.20;99.90;;;;;;4937729;29;20419;-80
2023/02/25 06:48:48;;;;;;;2.95;2.40;;;4.20;99.90;;;;;;4915986;29;20218;-81
2023/02/25 06:51:15;;;;;;;3.00;2.33;;;4.20;99.90;;;;;;4927085;29;20211;-80
2023/02/25 06:53:43;;;;;;;2.92;2.63;;;4.10;99.90;;;;;;4930489;29;20219;-82
2023/02/25 06:56:12;;;;;;;4.15;2.83;;;4.10;99.90;;;;;;4930601;29;20509;-80
2023/02/25 06:58:39;;;;;;;3.92;2.25;;;4.20;99.90;;;;;;4930339;29;20216;-80
2023/02/25 07:01:13;;;;;;;4.07;2.53;;;4.20;99.90;;;;;;4931298;29;20252;-80
2023/02/25 07:03:42;;;;;;;4.47;2.45;;;4.20;99.90;;;;;;4936686;29;20218;-81
2023/02/25 07:06:10;;;;;;;2.40;2.20;;;4.20;99.90;;;;;;4921738;29;20556;-79
2023/02/25 07:08:39;;;;;;;3.60;3.30;;;4.30;99.90;;;;;;4930467;29;20287;-79
2023/02/25 07:11:17;;;;;;;3.03;2.72;;;4.30;99.90;;;;;;4925930;29;20252;-78
2023/02/25 07:13:48;;;;;;;4.40;3.17;;;4.40;99.90;;;;;;4930923;29;20213;-80
2023/02/25 07:16:15;;;;;;;7.40;3.85;;;4.40;99.90;;;;;;4930800;29;20251;-79
2023/02/25 07:18:43;;;;;;;2.65;2.28;;;4.70;99.90;;;;;;4929639;29;20220;-79
2023/02/25 07:21:12;;;;;;;2.92;2.67;;;4.60;99.90;;;;;;4927525;29;20208;-80
2023/02/25 07:23:41;;;;;;;2.28;2.08;;;4.70;99.90;;;;;;4929499;29;20212;-79
2023/02/25 07:26:09;;;;;;;2.45;2.17;;;4.70;99.90;;;;;;4932635;29;20214;-78
2023/02/25 07:28:37;;;;;;;3.03;2.53;;;4.60;99.90;;;;;;4933628;29;20216;-80
2023/02/25 07:31:10;;;;;;;4.55;2.95;;;4.60;99.90;;;;;;4928703;29;20653;-78
2023/02/25 07:33:37;;;;;;;2.67;2.47;;;4.70;99.90;;;;;;4925541;29;20216;-79
2023/02/25 07:36:04;;;;;;;2.03;1.92;;;4.60;99.90;;;;;;4928887;29;20322;-78
2023/02/25 07:38:31;;;;;;;3.22;2.53;;;4.50;99.90;;;;;;4928928;29;20223;-80
2023/02/25 07:41:06;;;;;;;3.53;2.55;;;4.50;99.90;;;;;;4929837;29;20233;-78
2023/02/25 07:43:34;;;;;;;2.80;2.42;;;4.30;99.90;;;;;;4924543;29;20215;-80
2023/02/25 07:46:02;;;;;;;4.40;3.03;;;4.40;99.90;;;;;;4915237;29;20215;-79
2023/02/25 07:48:29;;;;;;;2.80;2.47;;;4.50;99.90;;;;;;4932033;29;20279;-80
2023/02/25 07:51:08;;;;;;;3.35;2.53;;;4.50;99.90;;;;;;4931406;29;20232;-80
2023/02/25 07:53:36;;;;;;;2.22;2.03;;;4.60;99.90;;;;;;4926484;29;20263;-79
2023/02/25 07:56:07;;;;;;;2.33;2.13;;;4.70;99.90;;;;;;4914496;29;20208;-80
2023/02/25 07:58:35;;;;;;;2.83;2.15;;;4.70;99.90;;;;;;4920771;29;20215;-80
2023/02/25 08:01:22;;;;;;;3.53;2.78;;;4.70;99.90;;;;;;4926476;29;20219;-81
2023/02/25 08:03:52;;;;;;;5.15;2.42;;;4.70;99.90;;;;;;4920471;29;20253;-81
2023/02/25 08:06:19;;;;;;;2.85;2.38;;;4.70;99.90;;;;;;4920823;29;20212;-81
2023/02/25 08:08:49;;;;;;;1.88;1.65;;;4.70;99.90;;;;;;4922072;29;20218;-80
2023/02/25 08:11:18;;;;;;;2.13;1.92;;;4.80;99.90;;;;;;4933335;29;20295;-80
2023/02/25 08:13:45;;;;;;;2.25;2.05;;;4.80;99.90;;;;;;4920304;29;20216;-80
2023/02/25 08:16:17;;;;;;;2.55;2.35;;;4.90;99.90;;;;;;4938053;29;20199;-80
2023/02/25 08:18:51;;;;;;;2.80;2.00;;;4.80;99.90;;;;;;4930490;29;20212;-81
2023/02/25 08:21:20;;;;;;;2.33;2.03;;;4.80;99.90;;;;;;4934778;29;20208;-81
2023/02/25 08:23:49;;;;;;;2.75;2.15;;;4.90;99.90;;;;;;4932260;29;20211;-81
2023/02/25 08:26:17;;;;;;;2.25;1.92;;;4.80;99.90;;;;;;4927992;29;20259;-82
2023/02/25 08:28:45;;;;;;;2.30;2.10;;;4.80;99.90;;;;;;4930158;29;20212;-80
2023/02/25 08:31:12;;;;;;;2.20;2.00;;;4.80;99.90;;;;;;4919505;29;20216;-80
2023/02/25 08:33:43;;;;;;;3.28;2.97;;;4.80;99.90;;;;;;4922945;29;20260;-80
2023/02/25 08:36:19;;;;;;;4.35;2.55;;;4.70;99.90;;;;;;4918859;29;20208;-82
2023/02/25 08:38:46;;;;;;;2.65;2.45;;;4.60;99.90;;;;;;4925836;29;20461;-80
2023/02/25 08:41:13;;;;;;;4.57;3.05;;;4.60;99.90;;;;;;4928385;29;20244;-82
2023/02/25 08:43:40;;;;;;;4.22;2.20;;;4.60;99.90;;;;;;4924672;29;20544;-82
2023/02/25 08:46:09;;;;;;;2.50;2.30;;;4.70;99.90;;;;;;4914129;29;20279;-81
2023/02/25 08:48:37;;;;;;;3.33;2.55;;;4.80;99.90;;;;;;4921697;29;20276;-82
2023/02/25 08:51:09;;;;;;;2.45;2.25;;;4.60;99.90;;;;;;4920163;29;20516;-82
2023/02/25 08:53:38;;;;;;;2.70;2.50;;;4.70;99.90;;;;;;4921085;29;20288;-79
2023/02/25 08:56:08;;;;;;;3.10;2.40;;;4.50;99.90;;;;;;4924767;29;20478;-81
2023/02/25 08:58:35;;;;;;;2.75;2.45;;;4.60;99.90;;;;;;4927458;29;20207;-82
2023/02/25 09:01:11;;;;;;;2.90;1.83;;;4.50;99.90;;;;;;4927837;29;20296;-84
2023/02/25 09:03:49;;;;;;;2.15;1.95;;;4.40;99.90;;;;;;4935374;29;20237;-82
2023/02/25 09:06:23;;;;;;;1.75;1.65;;;4.30;99.90;;;;;;4932100;29;20202;-82
2023/02/25 09:08:51;;;;;;;2.17;1.98;;;4.40;99.90;;;;;;4930216;29;20197;-81
2023/02/25 09:11:19;;;;;;;3.42;3.13;;;4.40;99.90;;;;;;4937689;29;20248;-84
2023/02/25 09:13:46;;;;;;;2.78;2.50;;;4.40;99.90;;;;;;4937809;29;20206;-80
2023/02/25 09:16:18;;;;;;;3.00;2.67;;;4.40;99.90;;;;;;4938310;28;20187;-81
2023/02/25 09:18:47;;;;;;;3.50;3.20;;;4.40;99.90;;;;;;4932571;29;20208;-80
2023/02/25 09:21:14;;;;;;;2.92;2.72;;;4.50;99.90;;;;;;4927368;29;20211;-81
2023/02/25 09:23:42;;;;;;;1.88;1.77;;;4.60;99.90;;;;;;4931678;29;20239;-82
2023/02/25 09:26:20;;;;;;;2.08;1.60;;;4.50;99.90;;;;;;4927269;29;20273;-82
2023/02/25 09:28:48;;;;;;;1.98;1.75;;;4.50;99.90;;;;;;4926153;29;20235;-81
2023/02/25 09:31:16;;;;;;;3.35;2.30;;;4.50;99.90;;;;;;4926923;29;20318;-82
2023/02/25 09:33:44;;;;;;;2.75;2.25;;;4.50;99.90;;;;;;4929665;29;20283;-82
2023/02/25 09:36:16;;;;;;;2.83;1.67;;;4.60;99.90;;;;;;4924380;29;20211;-80
2023/02/25 09:38:45;;;;;;;4.60;2.85;;;4.70;99.90;;;;;;4924087;29;20828;-81
2023/02/25 09:41:25;;;;;;;2.42;1.98;;;4.70;99.90;;;;;;4928890;29;20216;-82
2023/02/25 09:44:05;;;;;;;2.97;2.65;;;4.80;99.90;;;;;;4935590;29;20235;-82
2023/02/25 09:46:37;;;;;;;3.85;2.45;;;5.00;99.90;;;;;;4919624;29;20216;-80
2023/02/25 09:49:16;;;;;;;2.33;2.13;;;5.20;99.90;;;;;;4933659;29;20216;-82
2023/02/25 09:51:49;;;;;;;2.08;1.98;;;5.30;99.90;;;;;;4924253;29;20260;-81
2023/02/25 09:54:29;;;;;;;3.00;2.80;;;5.20;99.90;;;;;;4927047;29;20263;-80
2023/02/25 09:57:00;;;;;;;2.30;2.10;;;5.00;99.90;;;;;;4929352;29;20472;-82
2023/02/25 09:59:29;;;;;;;2.55;2.35;;;4.80;99.90;;;;;;4927345;29;20207;-82
2023/02/25 10:02:45;;;;;;;2.42;2.22;;;4.70;99.90;;;;;;4930359;29;20378;-82
2023/02/25 10:05:43;;;;;;;3.08;2.88;;;4.50;99.90;;;;;;4914152;29;20215;-81
2023/02/25 10:08:14;;;;;;;2.88;2.60;;;4.60;99.90;;;;;;4931151;29;20212;-82
2023/02/25 10:10:51;;;;;;;3.42;2.72;;;4.80;99.90;;;;;;4925340;29;20212;-82
2023/02/25 10:13:47;;;;;;;2.90;2.70;;;4.70;99.90;;;;;;4931294;29;20275;-82
2023/02/25 10:16:48;;;;;;;4.38;3.97;;;4.60;99.90;;;;;;4917015;29;20200;-81
2023/02/25 10:19:33;;;;;;;4.13;3.83;;;4.70;99.90;;;;;;4892101;29;20208;-82
2023/02/25 10:22:16;;;;;;;3.85;3.55;;;4.80;99.90;;;;;;4927101;29;20204;-83
2023/02/25 10:24:52;;;;;;;3.75;3.03;;;4.70;99.90;;;;;;4935726;29;20505;-81
2023/02/25 10:27:36;;;;;;;3.97;3.50;;;4.70;99.90;;;;;;4925892;29;20527;-83
2023/02/25 10:30:10;;;;;;;3.47;3.15;;;5.00;99.90;;;;;;4936179;29;20207;-81
2023/02/25 10:32:40;;;;;;;4.93;4.53;;;5.10;99.90;;;;;;4928187;29;20349;-81
2023/02/25 10:35:21;;;;;;;4.20;3.78;;;5.20;99.90;;;;;;4926359;29;20218;-81
2023/02/25 10:37:50;;;;;;;4.05;3.60;;;5.30;99.90;;;;;;4918438;29;20219;-81
2023/02/25 10:40:20;;;;;;;3.85;3.55;;;5.40;99.90;;;;;;4930490;29;20226;-83
2023/02/25 10:42:50;;;;;;;4.25;3.85;;;5.50;99.90;;;;;;4920310;29;20558;-82
2023/02/25 10:45:30;;;;;;;4.25;3.08;;;5.60;99.90;;;;;;4918620;29;20747;-80
2023/02/25 10:48:17;;;;;;;4.00;3.63;;;5.60;99.90;;;;;;4921455;29;20279;-80
2023/02/25 10:51:12;;;;;;;2.40;2.20;;;5.60;99.90;;;;;;4922906;29;20212;-82
2023/02/25 10:54:01;;;;;;;2.50;2.30;;;5.80;99.90;;;;;;4920646;29;20212;-81
2023/02/25 10:56:36;;;;;;;3.33;2.47;;;6.10;99.90;;;;;;4925731;29;20212;-82
2023/02/25 10:59:25;;;;;;;2.67;2.47;;;6.10;99.90;;;;;;4926910;29;20213;-82
2023/02/25 11:01:57;;;;;;;4.18;3.80;;;5.60;99.90;;;;;;4929035;29;20268;-80
2023/02/25 11:04:30;;;;;;;2.42;2.30;;;5.50;99.90;;;;;;4925920;29;20500;-82
2023/02/25 11:06:57;;;;;;;3.70;2.40;;;5.70;99.90;;;;;;4918444;29;20211;-80
2023/02/25 11:09:25;;;;;;;2.42;2.22;;;6.00;99.90;;;;;;4921214;29;20204;-82
2023/02/25 11:11:56;;;;;;;2.03;1.70;;;6.40;99.90;;;;;;4920857;29;20310;-81
2023/02/25 11:14:32;;;;;;;1.80;1.70;;;6.60;99.90;;;;;;4936420;29;20209;-80
2023/02/25 11:17:16;;;;;;;2.53;1.90;;;6.60;99.90;;;;;;4925403;29;20204;-79
2023/02/25 11:19:59;;;;;;;2.10;1.90;;;6.60;99.90;;;;;;4920816;29;20211;-83
2023/02/25 11:22:36;;;;;;;3.90;2.08;;;6.70;99.90;;;;;;4921447;29;20445;-83
2023/02/25 11:25:14;;;;;;;2.30;2.10;;;6.40;99.90;;;;;;4924748;29;20948;-80
2023/02/25 11:27:44;;;;;;;3.60;2.40;;;5.90;99.90;;;;;;4929658;29;20263;-81
2023/02/25 11:30:18;;;;;;;1.80;1.70;;;5.50;99.90;;;;;;4924081;29;20272;-81
2023/02/25 11:32:52;;;;;;;1.80;1.70;;;5.20;99.90;;;;;;4922604;29;20212;-80
2023/02/25 11:35:28;;;;;;;4.70;2.47;;;5.30;99.90;;;;;;4925628;29;20197;-82
2023/02/25 11:37:57;;;;;;;2.50;2.30;;;5.30;99.90;;;;;;4922102;29;20212;-81
2023/02/25 11:40:27;;;;;;;1.80;1.67;;;5.40;99.90;;;;;;4923721;29;20235;-83
2023/02/25 11:43:15;;;;;;;2.08;1.30;;;5.60;99.90;;;;;;4924834;29;20239;-82
2023/02/25 11:46:07;;;;;;;1.65;1.55;;;5.50;99.90;;;;;;4919398;29;21303;-80
2023/02/25 11:49:15;;;;;;;5.78;1.80;;;5.50;99.90;;;;;;4918437;29;20251;-83
2023/02/25 11:51:50;;;;;;;1.35;1.10;;;5.30;99.90;;;;;;4915623;29;20227;-81
2023/02/25 11:54:25;;;;;;;1.35;1.25;;;5.30;99.90;;;;;;4921661;29;20215;-80
2023/02/25 11:57:24;;;;;;;1.98;1.60;;;5.20;99.90;;;;;;4930806;29;20261;-81
2023/02/25 12:00:19;;;;;;;1.98;1.63;;;5.20;99.90;;;;;;4919033;29;20200;-79
2023/02/25 12:02:55;;;;;;;2.40;2.20;;;5.20;99.90;;;;;;4924932;29;20243;-81
2023/02/25 12:05:46;;;;;;;1.95;1.65;;;5.20;99.90;;;;;;4925286;29;20266;-80
2023/02/25 12:08:33;;;;;;;2.08;1.67;;;5.20;99.90;;;;;;4927297;29;20212;-81
2023/02/25 12:11:34;;;;;;;2.90;1.88;;;5.30;99.90;;;;;;4923890;29;20259;-80
2023/02/25 12:14:39;;;;;;;3.03;2.25;;;5.10;99.90;;;;;;4918561;29;20269;-80
2023/02/25 12:17:42;;;;;;;2.10;1.95;;;5.00;99.90;;;;;;4931016;29;20728;-81
2023/02/25 12:20:34;;;;;;;2.22;1.85;;;5.20;99.90;;;;;;4924056;29;20259;-81
2023/02/25 12:23:38;;;;;;;2.95;2.67;;;5.10;99.90;;;;;;4933826;29;20291;-81
2023/02/25 12:26:43;;;;;;;1.52;1.42;;;4.70;99.90;;;;;;4929262;29;20211;-80
2023/02/25 12:29:33;;;;;;;2.20;2.10;;;4.40;99.90;;;;;;4921194;29;20208;-83
2023/02/25 12:32:15;;;;;;;1.77;1.67;;;4.30;99.90;;;;;;4918190;29;20208;-81
2023/02/25 12:35:05;;;;;;;3.05;2.25;;;4.40;99.90;;;;;;4919850;29;20275;-82
2023/02/25 12:37:48;;;;;;;2.45;2.22;;;4.70;99.90;;;;;;4938257;29;20207;-79
2023/02/25 12:40:35;;;;;;;3.90;3.50;;;4.90;99.90;;;;;;4933684;29;20223;-82
2023/02/25 12:43:15;;;;;;;2.35;2.25;;;4.80;99.90;;;;;;4940244;29;20228;-82
2023/02/25 12:46:13;;;;;;;2.88;2.63;;;4.80;99.90;;;;;;4932591;29;20220;-83
2023/02/25 12:49:10;;;;;;;3.28;2.47;;;4.80;99.90;;;;;;4940173;29;20207;-84
2023/02/25 12:51:45;;;;;;;2.25;2.05;;;4.60;99.90;;;;;;4919349;29;20212;-82
2023/02/25 12:54:42;;;;;;;2.22;2.03;;;4.30;99.90;;;;;;4924805;29;20256;-83
2023/02/25 12:57:40;;;;;;;1.50;1.40;;;4.20;99.90;;;;;;4932541;29;20227;-82
2023/02/25 13:00:28;;;;;;;2.70;2.03;;;4.10;99.90;;;;;;4925390;29;20281;-82
2023/02/25 13:08:23;;;;;;;1.50;1.40;;;3.80;99.90;;;;;;4928176;29;20271;-82
2023/02/25 13:10:50;;;;;;;1.98;1.70;;;3.80;99.90;;;;;;4943504;29;20266;-81
2023/02/25 13:13:19;;;;;;;1.90;1.70;;;3.70;99.90;;;;;;4929556;29;20379;-81
2023/02/25 13:16:14;;;;;;;2.65;2.30;;;3.80;99.90;;;;;;4934507;29;20211;-83
2023/02/25 13:18:49;;;;;;;2.00;1.80;;;3.80;99.90;;;;;;4930818;29;20278;-83
2023/02/25 13:21:34;;;;;;;2.08;1.65;;;3.80;99.90;;;;;;4929347;29;20211;-81
2023/02/25 13:24:12;;;;;;;2.45;1.48;;;3.90;99.90;;;;;;4935770;29;20200;-82
2023/02/25 13:27:21;;;;;;;2.03;1.88;;;3.90;99.90;;;;;;4940846;28;20239;-83
2023/02/25 13:30:04;;;;;;;1.60;1.20;;;4.00;99.90;;;;;;4938989;28;20238;-82
2023/02/25 13:33:08;;;;;;;1.45;0.98;;;4.10;99.90;;;;;;4939420;29;20224;-83
2023/02/25 13:36:21;;;;;;;1.73;1.35;;;4.00;99.90;;;;;;4928833;29;20216;-83
2023/02/25 13:39:10;;;;;;;1.98;1.50;;;4.10;99.90;;;;;;4924436;29;20296;-81
2023/02/25 13:42:27;;;;;;;3.42;2.00;;;4.10;99.90;;;;;;4926521;29;20498;-80